KCDN/CDN METAR and TAF weather

Enter ICAO airport designator
Station Type Date Time Source
KCDN METAR 2019/06/17 06:35 UTC NOAA

KCDN 170635Z AUTO 18003KT 10SM CLR 23/21 A3004 RMK AO2


Station Type Date Time Source
KCDN Decoded METAR 2019/06/17 06:35 UTC NOAA

Station name not available
Jun 17, 2019 - 02:35 AM EDT / 2019.06.17 0635 UTC
Wind: from the S (180 degrees) at 3 MPH (3 KT):0
Visibility: 10 mile(s):0
Sky conditions: clear
Temperature: 73 F (23 C)
Dew Point: 69 F (21 C)
Relative Humidity: 88%
Pressure (altimeter): 30.04 in. Hg (1017 hPa)
ob: KCDN 170635Z AUTO 18003KT 10SM CLR 23/21 A3004 RMK AO2
cycle: 6

Station Type Date Time Source
KCDN TAF UTC NOAA

Error!

Example: see airport list